sensor_id;sensor_type;location;lat;lon;timestamp;P1;durP1;ratioP1;P2;durP2;ratioP2
67869;SDS011;54673;52.262;6.830;2023-03-26T00:01:00;4.50;;;1.60;;
67869;SDS011;54673;52.262;6.830;2023-03-26T00:03:29;3.17;;;1.30;;
67869;SDS011;54673;52.262;6.830;2023-03-26T00:08:37;2.73;;;1.37;;
67869;SDS011;54673;52.262;6.830;2023-03-26T00:11:04;3.08;;;1.40;;
67869;SDS011;54673;52.262;6.830;2023-03-26T00:13:31;3.80;;;1.30;;
67869;SDS011;54673;52.262;6.830;2023-03-26T00:15:57;6.13;;;1.40;;
67869;SDS011;54673;52.262;6.830;2023-03-26T00:18:23;2.78;;;1.40;;
67869;SDS011;54673;52.262;6.830;2023-03-26T00:20:54;4.27;;;1.40;;
67869;SDS011;54673;52.262;6.830;2023-03-26T00:23:23;5.60;;;1.63;;
67869;SDS011;54673;52.262;6.830;2023-03-26T00:25:49;6.32;;;1.55;;
67869;SDS011;54673;52.262;6.830;2023-03-26T00:28:15;2.90;;;1.47;;
67869;SDS011;54673;52.262;6.830;2023-03-26T00:30:45;6.10;;;1.52;;
67869;SDS011;54673;52.262;6.830;2023-03-26T00:33:11;4.10;;;1.48;;
67869;SDS011;54673;52.262;6.830;2023-03-26T00:35:41;5.00;;;1.30;;
67869;SDS011;54673;52.262;6.830;2023-03-26T00:38:10;4.15;;;1.45;;
67869;SDS011;54673;52.262;6.830;2023-03-26T00:40:39;4.22;;;1.60;;
67869;SDS011;54673;52.262;6.830;2023-03-26T00:43:08;5.83;;;1.80;;
67869;SDS011;54673;52.262;6.830;2023-03-26T00:45:43;3.70;;;1.27;;
67869;SDS011;54673;52.262;6.830;2023-03-26T00:48:18;4.53;;;1.48;;
67869;SDS011;54673;52.262;6.830;2023-03-26T00:50:45;4.20;;;1.50;;
67869;SDS011;54673;52.262;6.830;2023-03-26T00:53:12;4.00;;;1.58;;
67869;SDS011;54673;52.262;6.830;2023-03-26T00:55:39;6.37;;;1.47;;
67869;SDS011;54673;52.262;6.830;2023-03-26T00:58:06;3.83;;;1.65;;
67869;SDS011;54673;52.262;6.830;2023-03-26T01:00:37;2.67;;;1.42;;
67869;SDS011;54673;52.262;6.830;2023-03-26T01:03:09;5.70;;;2.10;;
67869;SDS011;54673;52.262;6.830;2023-03-26T01:05:42;6.10;;;1.60;;
67869;SDS011;54673;52.262;6.830;2023-03-26T01:08:18;5.13;;;1.73;;
67869;SDS011;54673;52.262;6.830;2023-03-26T01:10:49;3.60;;;1.63;;
67869;SDS011;54673;52.262;6.830;2023-03-26T01:13:21;8.05;;;1.85;;
67869;SDS011;54673;52.262;6.830;2023-03-26T01:15:48;4.90;;;1.75;;
67869;SDS011;54673;52.262;6.830;2023-03-26T01:18:18;4.93;;;1.50;;
67869;SDS011;54673;52.262;6.830;2023-03-26T01:20:47;7.22;;;1.73;;
67869;SDS011;54673;52.262;6.830;2023-03-26T01:23:16;7.13;;;1.70;;
67869;SDS011;54673;52.262;6.830;2023-03-26T01:25:49;6.33;;;1.90;;
67869;SDS011;54673;52.262;6.830;2023-03-26T01:28:32;6.70;;;1.75;;
67869;SDS011;54673;52.262;6.830;2023-03-26T01:31:43;5.50;;;1.83;;
67869;SDS011;54673;52.262;6.830;2023-03-26T01:33:56;4.90;;;1.70;;
67869;SDS011;54673;52.262;6.830;2023-03-26T01:36:40;4.45;;;1.45;;
67869;SDS011;54673;52.262;6.830;2023-03-26T01:39:40;4.50;;;1.30;;
67869;SDS011;54673;52.262;6.830;2023-03-26T01:42:20;4.47;;;1.30;;
67869;SDS011;54673;52.262;6.830;2023-03-26T01:44:58;8.95;;;1.80;;
67869;SDS011;54673;52.262;6.830;2023-03-26T01:47:31;3.87;;;1.53;;
67869;SDS011;54673;52.262;6.830;2023-03-26T01:50:00;7.07;;;1.88;;
67869;SDS011;54673;52.262;6.830;2023-03-26T01:52:26;6.07;;;1.60;;
67869;SDS011;54673;52.262;6.830;2023-03-26T01:54:52;8.57;;;1.80;;
67869;SDS011;54673;52.262;6.830;2023-03-26T01:57:25;6.83;;;1.80;;
67869;SDS011;54673;52.262;6.830;2023-03-26T02:00:34;7.35;;;1.60;;
67869;SDS011;54673;52.262;6.830;2023-03-26T02:08:59;4.53;;;1.40;;
67869;SDS011;54673;52.262;6.830;2023-03-26T02:11:35;4.95;;;1.55;;
67869;SDS011;54673;52.262;6.830;2023-03-26T02:14:04;7.50;;;1.80;;
67869;SDS011;54673;52.262;6.830;2023-03-26T02:16:30;4.30;;;1.63;;
67869;SDS011;54673;52.262;6.830;2023-03-26T02:18:56;6.80;;;1.67;;
67869;SDS011;54673;52.262;6.830;2023-03-26T02:21:23;4.35;;;1.67;;
67869;SDS011;54673;52.262;6.830;2023-03-26T02:23:54;6.78;;;1.38;;
67869;SDS011;54673;52.262;6.830;2023-03-26T02:26:26;8.43;;;2.00;;
67869;SDS011;54673;52.262;6.830;2023-03-26T02:28:54;5.72;;;2.10;;
67869;SDS011;54673;52.262;6.830;2023-03-26T02:31:19;4.37;;;1.70;;
67869;SDS011;54673;52.262;6.830;2023-03-26T02:33:45;6.80;;;1.60;;
67869;SDS011;54673;52.262;6.830;2023-03-26T02:36:11;7.50;;;2.10;;
67869;SDS011;54673;52.262;6.830;2023-03-26T02:38:38;5.28;;;2.10;;
67869;SDS011;54673;52.262;6.830;2023-03-26T02:41:05;5.72;;;1.85;;
67869;SDS011;54673;52.262;6.830;2023-03-26T02:43:31;7.57;;;1.90;;
67869;SDS011;54673;52.262;6.830;2023-03-26T02:45:57;4.68;;;1.88;;
67869;SDS011;54673;52.262;6.830;2023-03-26T02:48:22;6.57;;;2.00;;
67869;SDS011;54673;52.262;6.830;2023-03-26T02:50:48;8.57;;;1.85;;
67869;SDS011;54673;52.262;6.830;2023-03-26T02:53:18;7.10;;;2.13;;
67869;SDS011;54673;52.262;6.830;2023-03-26T02:55:45;6.38;;;2.20;;
67869;SDS011;54673;52.262;6.830;2023-03-26T02:58:11;7.03;;;2.13;;
67869;SDS011;54673;52.262;6.830;2023-03-26T03:00:42;5.43;;;1.73;;
67869;SDS011;54673;52.262;6.830;2023-03-26T03:03:08;6.43;;;1.92;;
67869;SDS011;54673;52.262;6.830;2023-03-26T03:05:33;6.90;;;1.90;;
67869;SDS011;54673;52.262;6.830;2023-03-26T03:08:02;7.28;;;1.95;;
67869;SDS011;54673;52.262;6.830;2023-03-26T03:10:28;9.23;;;1.63;;
67869;SDS011;54673;52.262;6.830;2023-03-26T03:12:57;5.22;;;1.90;;
67869;SDS011;54673;52.262;6.830;2023-03-26T03:15:22;6.47;;;1.98;;
67869;SDS011;54673;52.262;6.830;2023-03-26T03:17:49;9.77;;;2.00;;
67869;SDS011;54673;52.262;6.830;2023-03-26T03:20:15;7.30;;;1.90;;
67869;SDS011;54673;52.262;6.830;2023-03-26T03:22:41;6.50;;;1.90;;
67869;SDS011;54673;52.262;6.830;2023-03-26T03:25:07;9.25;;;2.10;;
67869;SDS011;54673;52.262;6.830;2023-03-26T03:27:38;9.10;;;2.63;;
67869;SDS011;54673;52.262;6.830;2023-03-26T03:30:05;7.70;;;2.00;;
67869;SDS011;54673;52.262;6.830;2023-03-26T03:32:31;11.65;;;2.15;;
67869;SDS011;54673;52.262;6.830;2023-03-26T03:34:56;9.33;;;2.37;;
67869;SDS011;54673;52.262;6.830;2023-03-26T03:37:23;8.47;;;2.17;;
67869;SDS011;54673;52.262;6.830;2023-03-26T03:39:50;5.03;;;1.70;;
67869;SDS011;54673;52.262;6.830;2023-03-26T03:42:16;6.65;;;1.70;;
67869;SDS011;54673;52.262;6.830;2023-03-26T03:44:42;6.47;;;2.23;;
67869;SDS011;54673;52.262;6.830;2023-03-26T03:47:07;8.73;;;2.00;;
67869;SDS011;54673;52.262;6.830;2023-03-26T03:49:37;6.03;;;1.70;;
67869;SDS011;54673;52.262;6.830;2023-03-26T03:52:03;6.40;;;1.73;;
67869;SDS011;54673;52.262;6.830;2023-03-26T03:54:29;7.38;;;2.25;;
67869;SDS011;54673;52.262;6.830;2023-03-26T03:56:55;8.18;;;2.08;;
67869;SDS011;54673;52.262;6.830;2023-03-26T03:59:20;8.00;;;2.00;;
67869;SDS011;54673;52.262;6.830;2023-03-26T04:01:46;7.40;;;2.40;;
67869;SDS011;54673;52.262;6.830;2023-03-26T04:04:12;6.18;;;2.15;;
67869;SDS011;54673;52.262;6.830;2023-03-26T04:06:38;7.73;;;2.40;;
67869;SDS011;54673;52.262;6.830;2023-03-26T04:09:03;9.15;;;2.13;;
67869;SDS011;54673;52.262;6.830;2023-03-26T04:11:29;8.27;;;2.10;;
67869;SDS011;54673;52.262;6.830;2023-03-26T04:13:55;8.27;;;1.98;;
67869;SDS011;54673;52.262;6.830;2023-03-26T04:16:20;6.43;;;1.80;;
67869;SDS011;54673;52.262;6.830;2023-03-26T04:18:46;9.50;;;2.43;;
67869;SDS011;54673;52.262;6.830;2023-03-26T04:21:11;7.55;;;2.30;;
67869;SDS011;54673;52.262;6.830;2023-03-26T04:23:40;6.43;;;2.27;;
67869;SDS011;54673;52.262;6.830;2023-03-26T04:26:06;7.23;;;2.23;;
67869;SDS011;54673;52.262;6.830;2023-03-26T04:29:10;5.82;;;2.08;;
67869;SDS011;54673;52.262;6.830;2023-03-26T04:31:30;9.13;;;1.93;;
67869;SDS011;54673;52.262;6.830;2023-03-26T04:33:57;5.88;;;1.92;;
67869;SDS011;54673;52.262;6.830;2023-03-26T04:36:29;9.88;;;2.30;;
67869;SDS011;54673;52.262;6.830;2023-03-26T04:38:58;6.13;;;1.70;;
67869;SDS011;54673;52.262;6.830;2023-03-26T04:41:28;6.70;;;2.08;;
67869;SDS011;54673;52.262;6.830;2023-03-26T04:43:56;6.38;;;2.10;;
67869;SDS011;54673;52.262;6.830;2023-03-26T04:46:25;8.90;;;2.00;;
67869;SDS011;54673;52.262;6.830;2023-03-26T04:48:52;7.07;;;2.00;;
67869;SDS011;54673;52.262;6.830;2023-03-26T04:51:19;8.03;;;2.20;;
67869;SDS011;54673;52.262;6.830;2023-03-26T04:53:51;9.18;;;2.38;;
67869;SDS011;54673;52.262;6.830;2023-03-26T04:59:00;6.97;;;2.37;;
67869;SDS011;54673;52.262;6.830;2023-03-26T05:01:26;6.55;;;2.17;;
67869;SDS011;54673;52.262;6.830;2023-03-26T05:03:55;5.37;;;1.83;;
67869;SDS011;54673;52.262;6.830;2023-03-26T05:06:22;6.28;;;1.70;;
67869;SDS011;54673;52.262;6.830;2023-03-26T05:08:49;5.93;;;2.00;;
67869;SDS011;54673;52.262;6.830;2023-03-26T05:11:15;6.13;;;1.60;;
67869;SDS011;54673;52.262;6.830;2023-03-26T05:13:40;7.83;;;2.00;;
67869;SDS011;54673;52.262;6.830;2023-03-26T05:16:07;6.60;;;1.75;;
67869;SDS011;54673;52.262;6.830;2023-03-26T05:18:34;6.70;;;2.20;;
67869;SDS011;54673;52.262;6.830;2023-03-26T05:21:00;7.88;;;1.77;;
67869;SDS011;54673;52.262;6.830;2023-03-26T05:23:26;5.17;;;1.90;;
67869;SDS011;54673;52.262;6.830;2023-03-26T05:25:51;7.53;;;1.98;;
67869;SDS011;54673;52.262;6.830;2023-03-26T05:28:17;4.93;;;1.83;;
67869;SDS011;54673;52.262;6.830;2023-03-26T05:30:48;8.82;;;2.00;;
67869;SDS011;54673;52.262;6.830;2023-03-26T05:33:17;4.60;;;1.40;;
67869;SDS011;54673;52.262;6.830;2023-03-26T05:35:43;6.15;;;1.48;;
67869;SDS011;54673;52.262;6.830;2023-03-26T05:38:09;7.03;;;1.63;;
67869;SDS011;54673;52.262;6.830;2023-03-26T05:40:35;8.37;;;2.23;;
67869;SDS011;54673;52.262;6.830;2023-03-26T05:43:01;5.32;;;1.80;;
67869;SDS011;54673;52.262;6.830;2023-03-26T05:45:27;7.97;;;1.90;;
67869;SDS011;54673;52.262;6.830;2023-03-26T05:47:52;4.67;;;1.80;;
67869;SDS011;54673;52.262;6.830;2023-03-26T05:50:19;9.18;;;1.83;;
67869;SDS011;54673;52.262;6.830;2023-03-26T05:52:46;5.80;;;1.73;;
67869;SDS011;54673;52.262;6.830;2023-03-26T05:55:12;8.07;;;2.33;;
67869;SDS011;54673;52.262;6.830;2023-03-26T05:57:38;6.40;;;2.10;;
67869;SDS011;54673;52.262;6.830;2023-03-26T06:00:04;5.13;;;1.50;;
67869;SDS011;54673;52.262;6.830;2023-03-26T06:02:33;5.97;;;1.83;;
67869;SDS011;54673;52.262;6.830;2023-03-26T06:04:59;7.93;;;1.93;;
67869;SDS011;54673;52.262;6.830;2023-03-26T06:07:26;8.82;;;2.33;;
67869;SDS011;54673;52.262;6.830;2023-03-26T06:09:52;9.23;;;2.13;;
67869;SDS011;54673;52.262;6.830;2023-03-26T06:12:18;4.63;;;1.43;;
67869;SDS011;54673;52.262;6.830;2023-03-26T06:14:44;7.73;;;1.73;;
67869;SDS011;54673;52.262;6.830;2023-03-26T06:17:11;6.53;;;1.90;;
67869;SDS011;54673;52.262;6.830;2023-03-26T06:19:37;9.02;;;1.88;;
67869;SDS011;54673;52.262;6.830;2023-03-26T06:22:02;5.43;;;1.93;;
67869;SDS011;54673;52.262;6.830;2023-03-26T06:24:29;6.28;;;1.88;;
67869;SDS011;54673;52.262;6.830;2023-03-26T06:26:55;7.57;;;1.80;;
67869;SDS011;54673;52.262;6.830;2023-03-26T06:29:20;6.40;;;2.00;;
67869;SDS011;54673;52.262;6.830;2023-03-26T06:31:46;8.83;;;1.80;;
67869;SDS011;54673;52.262;6.830;2023-03-26T06:34:11;7.33;;;1.83;;
67869;SDS011;54673;52.262;6.830;2023-03-26T06:36:37;4.45;;;1.70;;
67869;SDS011;54673;52.262;6.830;2023-03-26T06:39:03;6.87;;;2.00;;
67869;SDS011;54673;52.262;6.830;2023-03-26T06:41:29;3.50;;;1.67;;
67869;SDS011;54673;52.262;6.830;2023-03-26T06:43:58;6.43;;;1.60;;
67869;SDS011;54673;52.262;6.830;2023-03-26T06:46:24;5.82;;;1.60;;
67869;SDS011;54673;52.262;6.830;2023-03-26T06:48:50;6.30;;;1.55;;
67869;SDS011;54673;52.262;6.830;2023-03-26T06:51:16;5.63;;;1.90;;
67869;SDS011;54673;52.262;6.830;2023-03-26T06:53:41;5.00;;;1.35;;
67869;SDS011;54673;52.262;6.830;2023-03-26T06:56:07;2.97;;;1.10;;
67869;SDS011;54673;52.262;6.830;2023-03-26T06:58:33;4.53;;;1.33;;
67869;SDS011;54673;52.262;6.830;2023-03-26T07:00:59;2.97;;;1.00;;
67869;SDS011;54673;52.262;6.830;2023-03-26T07:03:24;4.78;;;1.23;;
67869;SDS011;54673;52.262;6.830;2023-03-26T07:05:50;4.97;;;1.30;;
67869;SDS011;54673;52.262;6.830;2023-03-26T07:08:16;4.90;;;1.63;;
67869;SDS011;54673;52.262;6.830;2023-03-26T07:10:41;4.40;;;1.57;;
67869;SDS011;54673;52.262;6.830;2023-03-26T07:13:07;5.32;;;1.15;;
67869;SDS011;54673;52.262;6.830;2023-03-26T07:15:32;5.00;;;1.50;;
67869;SDS011;54673;52.262;6.830;2023-03-26T07:17:58;5.07;;;1.13;;
67869;SDS011;54673;52.262;6.830;2023-03-26T07:20:24;4.20;;;1.30;;
67869;SDS011;54673;52.262;6.830;2023-03-26T07:22:50;3.70;;;1.60;;
67869;SDS011;54673;52.262;6.830;2023-03-26T07:25:16;4.43;;;1.30;;
67869;SDS011;54673;52.262;6.830;2023-03-26T07:40:29;4.18;;;1.55;;
67869;SDS011;54673;52.262;6.830;2023-03-26T07:45:45;11.93;;;2.15;;
67869;SDS011;54673;52.262;6.830;2023-03-26T07:48:15;14.20;;;3.30;;
67869;SDS011;54673;52.262;6.830;2023-03-26T07:50:43;12.13;;;3.20;;
67869;SDS011;54673;52.262;6.830;2023-03-26T07:53:09;14.57;;;3.17;;
67869;SDS011;54673;52.262;6.830;2023-03-26T07:55:36;11.98;;;3.70;;
67869;SDS011;54673;52.262;6.830;2023-03-26T07:58:30;14.53;;;3.77;;
67869;SDS011;54673;52.262;6.830;2023-03-26T08:01:22;10.57;;;3.60;;
67869;SDS011;54673;52.262;6.830;2023-03-26T08:06:46;13.13;;;3.75;;
67869;SDS011;54673;52.262;6.830;2023-03-26T08:17:08;9.55;;;3.30;;
67869;SDS011;54673;52.262;6.830;2023-03-26T08:19:53;8.37;;;3.20;;
67869;SDS011;54673;52.262;6.830;2023-03-26T08:22:33;14.25;;;3.70;;
67869;SDS011;54673;52.262;6.830;2023-03-26T08:25:18;8.77;;;2.80;;
67869;SDS011;54673;52.262;6.830;2023-03-26T08:30:25;9.35;;;2.53;;
67869;SDS011;54673;52.262;6.830;2023-03-26T08:32:55;8.57;;;2.20;;
67869;SDS011;54673;52.262;6.830;2023-03-26T08:35:28;7.83;;;2.13;;
67869;SDS011;54673;52.262;6.830;2023-03-26T08:37:54;9.48;;;1.80;;
67869;SDS011;54673;52.262;6.830;2023-03-26T08:46:18;7.53;;;1.92;;
67869;SDS011;54673;52.262;6.830;2023-03-26T08:51:32;6.95;;;1.70;;
67869;SDS011;54673;52.262;6.830;2023-03-26T08:56:41;4.87;;;1.40;;
67869;SDS011;54673;52.262;6.830;2023-03-26T08:59:45;5.68;;;1.67;;
67869;SDS011;54673;52.262;6.830;2023-03-26T09:15:51;6.40;;;1.30;;
67869;SDS011;54673;52.262;6.830;2023-03-26T09:32:59;3.95;;;1.30;;
67869;SDS011;54673;52.262;6.830;2023-03-26T09:35:42;4.77;;;1.37;;
67869;SDS011;54673;52.262;6.830;2023-03-26T09:38:36;4.30;;;1.50;;
67869;SDS011;54673;52.262;6.830;2023-03-26T09:49:29;4.28;;;1.00;;
67869;SDS011;54673;52.262;6.830;2023-03-26T09:52:25;2.92;;;1.10;;
67869;SDS011;54673;52.262;6.830;2023-03-26T10:00:40;2.78;;;1.27;;
67869;SDS011;54673;52.262;6.830;2023-03-26T10:03:29;2.40;;;1.10;;
67869;SDS011;54673;52.262;6.830;2023-03-26T10:06:29;2.97;;;1.05;;
67869;SDS011;54673;52.262;6.830;2023-03-26T10:12:04;2.50;;;1.10;;
67869;SDS011;54673;52.262;6.830;2023-03-26T10:14:53;3.03;;;1.17;;
67869;SDS011;54673;52.262;6.830;2023-03-26T10:17:50;2.20;;;1.10;;
67869;SDS011;54673;52.262;6.830;2023-03-26T10:20:28;7.90;;;1.40;;
67869;SDS011;54673;52.262;6.830;2023-03-26T10:31:38;2.63;;;0.88;;
67869;SDS011;54673;52.262;6.830;2023-03-26T10:42:34;4.17;;;0.80;;
67869;SDS011;54673;52.262;6.830;2023-03-26T10:57:23;2.63;;;1.17;;
67869;SDS011;54673;52.262;6.830;2023-03-26T10:59:57;1.67;;;0.80;;
67869;SDS011;54673;52.262;6.830;2023-03-26T11:02:31;1.50;;;0.80;;
67869;SDS011;54673;52.262;6.830;2023-03-26T11:07:56;1.83;;;0.85;;
67869;SDS011;54673;52.262;6.830;2023-03-26T11:10:41;1.70;;;0.80;;
67869;SDS011;54673;52.262;6.830;2023-03-26T11:33:23;2.05;;;0.77;;
67869;SDS011;54673;52.262;6.830;2023-03-26T11:35:54;1.47;;;0.93;;
67869;SDS011;54673;52.262;6.830;2023-03-26T11:38:25;2.47;;;0.80;;
67869;SDS011;54673;52.262;6.830;2023-03-26T11:40:57;3.00;;;0.90;;
67869;SDS011;54673;52.262;6.830;2023-03-26T11:43:28;3.90;;;0.97;;
67869;SDS011;54673;52.262;6.830;2023-03-26T11:45:58;2.10;;;0.90;;
67869;SDS011;54673;52.262;6.830;2023-03-26T11:48:42;2.63;;;0.93;;
67869;SDS011;54673;52.262;6.830;2023-03-26T11:53:49;3.43;;;1.30;;
67869;SDS011;54673;52.262;6.830;2023-03-26T12:04:42;3.03;;;1.17;;
67869;SDS011;54673;52.262;6.830;2023-03-26T12:07:20;3.50;;;1.50;;
67869;SDS011;54673;52.262;6.830;2023-03-26T12:10:03;3.47;;;1.58;;
67869;SDS011;54673;52.262;6.830;2023-03-26T12:12:32;5.07;;;1.60;;
67869;SDS011;54673;52.262;6.830;2023-03-26T12:15:03;4.43;;;1.73;;
67869;SDS011;54673;52.262;6.830;2023-03-26T12:17:37;3.60;;;1.48;;
67869;SDS011;54673;52.262;6.830;2023-03-26T12:20:52;4.57;;;1.38;;
67869;SDS011;54673;52.262;6.830;2023-03-26T12:25:23;6.90;;;1.52;;
67869;SDS011;54673;52.262;6.830;2023-03-26T12:30:37;3.77;;;1.30;;
67869;SDS011;54673;52.262;6.830;2023-03-26T12:33:15;3.25;;;1.05;;
67869;SDS011;54673;52.262;6.830;2023-03-26T12:35:50;3.95;;;1.10;;
67869;SDS011;54673;52.262;6.830;2023-03-26T12:43:49;3.80;;;1.05;;
67869;SDS011;54673;52.262;6.830;2023-03-26T12:46:24;2.97;;;1.10;;
67869;SDS011;54673;52.262;6.830;2023-03-26T12:48:56;3.13;;;1.20;;
67869;SDS011;54673;52.262;6.830;2023-03-26T12:59:25;2.08;;;1.10;;
67869;SDS011;54673;52.262;6.830;2023-03-26T13:02:17;2.53;;;1.10;;
67869;SDS011;54673;52.262;6.830;2023-03-26T13:13:34;4.45;;;1.00;;
67869;SDS011;54673;52.262;6.830;2023-03-26T13:16:09;6.40;;;1.00;;
67869;SDS011;54673;52.262;6.830;2023-03-26T13:24:49;2.87;;;1.10;;
67869;SDS011;54673;52.262;6.830;2023-03-26T13:27:43;3.58;;;1.10;;
67869;SDS011;54673;52.262;6.830;2023-03-26T13:30:40;2.30;;;1.10;;
67869;SDS011;54673;52.262;6.830;2023-03-26T13:49:39;3.63;;;1.37;;
67869;SDS011;54673;52.262;6.830;2023-03-26T13:57:44;2.97;;;1.17;;
67869;SDS011;54673;52.262;6.830;2023-03-26T14:00:16;3.08;;;1.40;;
67869;SDS011;54673;52.262;6.830;2023-03-26T14:02:47;1.92;;;1.10;;
67869;SDS011;54673;52.262;6.830;2023-03-26T14:05:20;3.10;;;1.47;;
67869;SDS011;54673;52.262;6.830;2023-03-26T14:11:08;2.42;;;1.20;;
67869;SDS011;54673;52.262;6.830;2023-03-26T14:13:48;3.33;;;1.60;;
67869;SDS011;54673;52.262;6.830;2023-03-26T14:16:56;3.70;;;1.30;;
67869;SDS011;54673;52.262;6.830;2023-03-26T14:22:01;3.72;;;1.33;;
67869;SDS011;54673;52.262;6.830;2023-03-26T14:27:30;2.05;;;1.40;;
67869;SDS011;54673;52.262;6.830;2023-03-26T14:33:32;4.30;;;1.40;;
67869;SDS011;54673;52.262;6.830;2023-03-26T14:41:49;2.17;;;1.20;;
67869;SDS011;54673;52.262;6.830;2023-03-26T14:55:12;1.90;;;1.10;;
67869;SDS011;54673;52.262;6.830;2023-03-26T14:58:12;2.05;;;1.20;;
67869;SDS011;54673;52.262;6.830;2023-03-26T15:13:57;3.10;;;1.50;;
67869;SDS011;54673;52.262;6.830;2023-03-26T15:44:20;2.33;;;1.10;;
67869;SDS011;54673;52.262;6.830;2023-03-26T15:47:16;2.25;;;1.13;;
67869;SDS011;54673;52.262;6.830;2023-03-26T15:49:53;3.13;;;1.30;;
67869;SDS011;54673;52.262;6.830;2023-03-26T15:52:27;4.40;;;1.30;;
67869;SDS011;54673;52.262;6.830;2023-03-26T15:55:08;3.17;;;1.10;;
67869;SDS011;54673;52.262;6.830;2023-03-26T16:00:19;4.47;;;1.00;;
67869;SDS011;54673;52.262;6.830;2023-03-26T16:05:39;2.05;;;1.08;;
67869;SDS011;54673;52.262;6.830;2023-03-26T16:08:27;2.42;;;1.40;;
67869;SDS011;54673;52.262;6.830;2023-03-26T16:11:10;2.67;;;1.53;;
67869;SDS011;54673;52.262;6.830;2023-03-26T16:18:52;5.63;;;1.77;;
67869;SDS011;54673;52.262;6.830;2023-03-26T16:31:30;4.50;;;1.50;;
67869;SDS011;54673;52.262;6.830;2023-03-26T16:36:46;5.40;;;1.43;;
67869;SDS011;54673;52.262;6.830;2023-03-26T16:39:22;3.58;;;1.40;;
67869;SDS011;54673;52.262;6.830;2023-03-26T16:42:02;2.88;;;1.30;;
67869;SDS011;54673;52.262;6.830;2023-03-26T16:47:49;2.70;;;1.20;;
67869;SDS011;54673;52.262;6.830;2023-03-26T16:50:45;3.22;;;1.60;;
67869;SDS011;54673;52.262;6.830;2023-03-26T16:53:36;2.65;;;1.80;;
67869;SDS011;54673;52.262;6.830;2023-03-26T16:56:41;3.17;;;1.20;;
67869;SDS011;54673;52.262;6.830;2023-03-26T16:59:30;4.40;;;1.65;;
67869;SDS011;54673;52.262;6.830;2023-03-26T17:02:32;5.53;;;1.88;;
67869;SDS011;54673;52.262;6.830;2023-03-26T17:05:07;3.13;;;1.60;;
67869;SDS011;54673;52.262;6.830;2023-03-26T17:07:37;3.97;;;1.67;;
67869;SDS011;54673;52.262;6.830;2023-03-26T17:10:14;4.40;;;1.70;;
67869;SDS011;54673;52.262;6.830;2023-03-26T17:15:44;4.80;;;1.80;;
67869;SDS011;54673;52.262;6.830;2023-03-26T17:18:27;7.90;;;1.80;;
67869;SDS011;54673;52.262;6.830;2023-03-26T17:21:14;5.00;;;1.55;;
67869;SDS011;54673;52.262;6.830;2023-03-26T17:24:00;5.43;;;1.50;;
67869;SDS011;54673;52.262;6.830;2023-03-26T17:26:52;4.78;;;2.25;;
67869;SDS011;54673;52.262;6.830;2023-03-26T17:32:12;3.80;;;1.60;;
67869;SDS011;54673;52.262;6.830;2023-03-26T17:47:39;3.67;;;1.50;;
67869;SDS011;54673;52.262;6.830;2023-03-26T17:50:13;3.67;;;1.20;;
67869;SDS011;54673;52.262;6.830;2023-03-26T17:52:56;4.80;;;1.33;;
67869;SDS011;54673;52.262;6.830;2023-03-26T17:55:31;4.55;;;1.40;;
67869;SDS011;54673;52.262;6.830;2023-03-26T17:58:01;3.42;;;1.38;;
67869;SDS011;54673;52.262;6.830;2023-03-26T18:00:31;3.70;;;1.37;;
67869;SDS011;54673;52.262;6.830;2023-03-26T18:03:14;6.90;;;1.37;;
67869;SDS011;54673;52.262;6.830;2023-03-26T18:05:45;4.93;;;1.45;;
67869;SDS011;54673;52.262;6.830;2023-03-26T18:14:10;4.05;;;1.27;;
67869;SDS011;54673;52.262;6.830;2023-03-26T18:16:57;3.65;;;1.08;;
67869;SDS011;54673;52.262;6.830;2023-03-26T18:19:24;1.97;;;1.23;;
67869;SDS011;54673;52.262;6.830;2023-03-26T18:21:52;3.20;;;1.33;;
67869;SDS011;54673;52.262;6.830;2023-03-26T18:24:29;3.20;;;1.17;;
67869;SDS011;54673;52.262;6.830;2023-03-26T18:29:41;1.97;;;1.20;;
67869;SDS011;54673;52.262;6.830;2023-03-26T18:34:38;3.88;;;1.30;;
67869;SDS011;54673;52.262;6.830;2023-03-26T18:37:20;7.67;;;1.17;;
67869;SDS011;54673;52.262;6.830;2023-03-26T18:42:36;4.22;;;1.08;;
67869;SDS011;54673;52.262;6.830;2023-03-26T18:45:07;1.40;;;0.80;;
67869;SDS011;54673;52.262;6.830;2023-03-26T18:47:58;2.80;;;1.08;;
67869;SDS011;54673;52.262;6.830;2023-03-26T18:50:29;3.17;;;1.15;;
67869;SDS011;54673;52.262;6.830;2023-03-26T18:53:01;4.17;;;1.23;;
67869;SDS011;54673;52.262;6.830;2023-03-26T18:55:31;2.30;;;1.20;;
67869;SDS011;54673;52.262;6.830;2023-03-26T18:58:17;2.03;;;0.90;;
67869;SDS011;54673;52.262;6.830;2023-03-26T19:00:50;9.87;;;1.33;;
67869;SDS011;54673;52.262;6.830;2023-03-26T19:03:19;4.83;;;1.37;;
67869;SDS011;54673;52.262;6.830;2023-03-26T19:05:48;6.68;;;1.30;;
67869;SDS011;54673;52.262;6.830;2023-03-26T19:08:20;6.97;;;1.20;;
67869;SDS011;54673;52.262;6.830;2023-03-26T19:10:48;3.30;;;0.90;;
67869;SDS011;54673;52.262;6.830;2023-03-26T19:13:14;2.40;;;1.05;;
67869;SDS011;54673;52.262;6.830;2023-03-26T19:15:41;2.85;;;1.35;;
67869;SDS011;54673;52.262;6.830;2023-03-26T19:18:12;4.60;;;1.60;;
67869;SDS011;54673;52.262;6.830;2023-03-26T19:20:47;6.97;;;1.65;;
67869;SDS011;54673;52.262;6.830;2023-03-26T19:23:19;3.83;;;1.45;;
67869;SDS011;54673;52.262;6.830;2023-03-26T19:25:48;4.27;;;1.57;;
67869;SDS011;54673;52.262;6.830;2023-03-26T19:28:27;4.40;;;1.53;;
67869;SDS011;54673;52.262;6.830;2023-03-26T19:31:37;4.35;;;1.50;;
67869;SDS011;54673;52.262;6.830;2023-03-26T19:34:02;5.43;;;1.50;;
67869;SDS011;54673;52.262;6.830;2023-03-26T19:39:23;3.38;;;1.40;;
67869;SDS011;54673;52.262;6.830;2023-03-26T19:42:13;5.13;;;1.60;;
67869;SDS011;54673;52.262;6.830;2023-03-26T19:44:48;4.40;;;1.93;;
67869;SDS011;54673;52.262;6.830;2023-03-26T19:47:21;3.88;;;1.45;;
67869;SDS011;54673;52.262;6.830;2023-03-26T19:49:57;4.05;;;1.95;;
67869;SDS011;54673;52.262;6.830;2023-03-26T19:55:09;5.33;;;1.50;;
67869;SDS011;54673;52.262;6.830;2023-03-26T19:57:48;3.17;;;1.60;;
67869;SDS011;54673;52.262;6.830;2023-03-26T20:00:16;3.83;;;1.48;;
67869;SDS011;54673;52.262;6.830;2023-03-26T20:02:43;3.33;;;1.30;;
67869;SDS011;54673;52.262;6.830;2023-03-26T20:05:14;3.70;;;1.70;;
67869;SDS011;54673;52.262;6.830;2023-03-26T20:07:47;2.92;;;1.42;;
67869;SDS011;54673;52.262;6.830;2023-03-26T20:10:17;3.03;;;1.43;;
67869;SDS011;54673;52.262;6.830;2023-03-26T20:12:43;5.32;;;1.77;;
67869;SDS011;54673;52.262;6.830;2023-03-26T20:15:13;4.18;;;1.80;;
67869;SDS011;54673;52.262;6.830;2023-03-26T20:17:46;7.17;;;1.80;;
67869;SDS011;54673;52.262;6.830;2023-03-26T20:20:23;4.87;;;1.60;;
67869;SDS011;54673;52.262;6.830;2023-03-26T20:22:52;5.00;;;1.60;;
67869;SDS011;54673;52.262;6.830;2023-03-26T20:25:29;2.95;;;1.40;;
67869;SDS011;54673;52.262;6.830;2023-03-26T20:27:58;3.97;;;1.60;;
67869;SDS011;54673;52.262;6.830;2023-03-26T20:30:25;4.30;;;1.70;;
67869;SDS011;54673;52.262;6.830;2023-03-26T20:32:53;3.03;;;1.40;;
67869;SDS011;54673;52.262;6.830;2023-03-26T20:35:21;5.10;;;1.70;;
67869;SDS011;54673;52.262;6.830;2023-03-26T20:37:48;3.58;;;1.73;;
67869;SDS011;54673;52.262;6.830;2023-03-26T20:40:15;3.30;;;1.60;;
67869;SDS011;54673;52.262;6.830;2023-03-26T20:42:42;3.67;;;1.77;;
67869;SDS011;54673;52.262;6.830;2023-03-26T20:45:18;3.20;;;1.50;;
67869;SDS011;54673;52.262;6.830;2023-03-26T20:47:46;4.50;;;1.83;;
67869;SDS011;54673;52.262;6.830;2023-03-26T20:50:16;3.03;;;1.40;;
67869;SDS011;54673;52.262;6.830;2023-03-26T20:52:47;4.63;;;1.80;;
67869;SDS011;54673;52.262;6.830;2023-03-26T20:55:16;2.90;;;1.70;;
67869;SDS011;54673;52.262;6.830;2023-03-26T20:57:47;4.78;;;1.67;;
67869;SDS011;54673;52.262;6.830;2023-03-26T21:00:15;2.87;;;1.60;;
67869;SDS011;54673;52.262;6.830;2023-03-26T21:02:46;3.15;;;1.50;;
67869;SDS011;54673;52.262;6.830;2023-03-26T21:05:17;2.95;;;1.40;;
67869;SDS011;54673;52.262;6.830;2023-03-26T21:07:58;2.93;;;1.70;;